Time;durP1;ratioP1;P1;durP2;ratioP2;P2;SDS_P1;SDS_P2;PMS_P1;PMS_P2;Temp;Humidity;BMP_temperature;BMP_pressure;BME280_temperature;BME280_humidity;BME280_pressure;Samples;Min_cycle;Max_cycle;Signal;HPM_P1;HPM_P2
2023/09/08 00:02:11;;;;;;;1.77;1.08;;;;;;;;;;5005624;28;20038;-72
2023/09/08 00:04:38;;;;;;;4.07;1.10;;;;;;;;;;5006223;28;20042;-73
2023/09/08 00:07:04;;;;;;;2.72;1.27;;;;;;;;;;5005570;28;20038;-73
2023/09/08 00:09:30;;;;;;;4.07;1.17;;;;;;;;;;5006059;28;20049;-73
2023/09/08 00:11:57;;;;;;;7.07;1.75;;;;;;;;;;5020972;28;20073;-73
2023/09/08 00:14:23;;;;;;;4.05;1.55;;;;;;;;;;5005995;28;20058;-72
2023/09/08 00:16:51;;;;;;;2.38;1.15;;;;;;;;;;5006304;28;20032;-73
2023/09/08 00:19:17;;;;;;;1.58;1.20;;;;;;;;;;5005845;28;20026;-73
2023/09/08 00:21:43;;;;;;;2.75;1.40;;;;;;;;;;5005895;28;20073;-74
2023/09/08 00:24:11;;;;;;;1.13;0.88;;;;;;;;;;5017350;28;20523;-74
2023/09/08 00:26:37;;;;;;;1.98;1.13;;;;;;;;;;5005547;28;20034;-74
2023/09/08 00:29:03;;;;;;;1.95;0.90;;;;;;;;;;5006583;28;20037;-74
2023/09/08 00:31:29;;;;;;;2.60;1.10;;;;;;;;;;5021350;28;20034;-74
2023/09/08 00:33:56;;;;;;;2.72;1.08;;;;;;;;;;5005657;28;20037;-74
2023/09/08 00:36:22;;;;;;;1.50;1.10;;;;;;;;;;5010202;28;20042;-74
2023/09/08 00:38:48;;;;;;;4.40;1.13;;;;;;;;;;5019843;28;20038;-74
2023/09/08 00:41:15;;;;;;;2.65;1.40;;;;;;;;;;5025560;28;20042;-75
2023/09/08 00:43:41;;;;;;;3.92;0.95;;;;;;;;;;5009354;28;20132;-73
2023/09/08 00:46:08;;;;;;;0.82;0.82;;;;;;;;;;5025394;28;20030;-73
2023/09/08 00:48:34;;;;;;;1.55;0.90;;;;;;;;;;5004156;28;20365;-73
2023/09/08 00:51:01;;;;;;;2.75;1.17;;;;;;;;;;5024447;28;20128;-73
2023/09/08 00:53:27;;;;;;;2.35;1.15;;;;;;;;;;5024488;28;20057;-73
2023/09/08 00:55:55;;;;;;;1.92;0.90;;;;;;;;;;5004538;28;20488;-72
2023/09/08 00:58:21;;;;;;;0.80;0.80;;;;;;;;;;5024041;28;20056;-72
2023/09/08 01:00:47;;;;;;;1.42;1.00;;;;;;;;;;5019989;28;20034;-73
2023/09/08 01:03:14;;;;;;;1.60;0.88;;;;;;;;;;5023890;28;20026;-72
2023/09/08 01:05:40;;;;;;;4.07;1.10;;;;;;;;;;5007715;28;20038;-72
2023/09/08 01:08:07;;;;;;;2.75;1.00;;;;;;;;;;5009664;28;20084;-72
2023/09/08 01:10:34;;;;;;;3.08;1.00;;;;;;;;;;5009390;28;20508;-74
2023/09/08 01:13:01;;;;;;;1.27;1.00;;;;;;;;;;5007498;28;20080;-73
2023/09/08 01:15:27;;;;;;;1.95;0.90;;;;;;;;;;5009245;28;20121;-73
2023/09/08 01:17:54;;;;;;;2.20;0.80;;;;;;;;;;5023496;28;20034;-74
2023/09/08 01:20:24;;;;;;;1.63;1.08;;;;;;;;;;5023879;28;20396;-74
2023/09/08 01:23:09;;;;;;;1.67;1.00;;;;;;;;;;5007868;28;20033;-74
2023/09/08 01:25:39;;;;;;;1.40;1.10;;;;;;;;;;5023478;28;20034;-74
2023/09/08 01:28:07;;;;;;;1.00;0.70;;;;;;;;;;5023905;28;20034;-74
2023/09/08 01:30:34;;;;;;;1.88;0.70;;;;;;;;;;5023327;28;20408;-74
2023/09/08 01:33:00;;;;;;;3.05;1.17;;;;;;;;;;5023068;28;20038;-74
2023/09/08 01:35:27;;;;;;;1.85;1.00;;;;;;;;;;5023872;28;20439;-74
2023/09/08 01:37:54;;;;;;;1.95;1.20;;;;;;;;;;5008767;28;20062;-74
2023/09/08 01:40:20;;;;;;;3.15;0.88;;;;;;;;;;5008771;28;20037;-74
2023/09/08 01:42:49;;;;;;;1.67;0.77;;;;;;;;;;5009008;28;20034;-74
2023/09/08 01:45:15;;;;;;;1.88;1.08;;;;;;;;;;5017838;28;20042;-74
2023/09/08 01:47:41;;;;;;;1.98;0.77;;;;;;;;;;5023475;28;21756;-74
2023/09/08 01:50:08;;;;;;;1.98;1.40;;;;;;;;;;5009028;28;20032;-74
2023/09/08 01:52:34;;;;;;;1.48;1.02;;;;;;;;;;5023015;28;20036;-74
2023/09/08 01:55:01;;;;;;;1.05;0.63;;;;;;;;;;5008309;28;20147;-73
2023/09/08 01:57:28;;;;;;;1.17;0.90;;;;;;;;;;5008460;28;20034;-74
2023/09/08 01:59:55;;;;;;;1.35;1.00;;;;;;;;;;5007006;28;20092;-74
2023/09/08 02:02:21;;;;;;;1.65;0.88;;;;;;;;;;5023034;28;20096;-73
2023/09/08 02:04:48;;;;;;;2.30;1.00;;;;;;;;;;5007379;28;20025;-74
2023/09/08 02:07:14;;;;;;;2.13;1.13;;;;;;;;;;5019704;28;20121;-73
2023/09/08 02:09:42;;;;;;;2.60;0.90;;;;;;;;;;5006718;28;20038;-74
2023/09/08 02:12:08;;;;;;;1.27;1.00;;;;;;;;;;5023140;28;20064;-73
2023/09/08 02:14:34;;;;;;;1.67;1.00;;;;;;;;;;5008284;28;20033;-73
2023/09/08 02:17:00;;;;;;;2.65;1.10;;;;;;;;;;5007326;28;20036;-73
2023/09/08 02:19:27;;;;;;;1.42;1.15;;;;;;;;;;5023123;28;20420;-73
2023/09/08 02:21:53;;;;;;;2.80;1.10;;;;;;;;;;5022419;28;20523;-73
2023/09/08 02:24:19;;;;;;;1.83;0.90;;;;;;;;;;5022369;28;20408;-74
2023/09/08 02:26:46;;;;;;;2.78;1.10;;;;;;;;;;5006560;28;20030;-72
2023/09/08 02:29:13;;;;;;;1.50;0.77;;;;;;;;;;5022918;28;20060;-72
2023/09/08 02:31:39;;;;;;;3.03;1.10;;;;;;;;;;5006368;28;20058;-72
2023/09/08 02:34:06;;;;;;;1.60;1.02;;;;;;;;;;5006528;28;20168;-73
2023/09/08 02:36:33;;;;;;;2.58;1.10;;;;;;;;;;5022109;28;20049;-72
2023/09/08 02:39:00;;;;;;;1.27;0.73;;;;;;;;;;5022795;28;20033;-72
2023/09/08 02:41:28;;;;;;;2.42;1.00;;;;;;;;;;5022477;28;20451;-73
2023/09/08 02:43:54;;;;;;;1.42;0.63;;;;;;;;;;5008189;28;20030;-72
2023/09/08 02:46:21;;;;;;;1.02;0.70;;;;;;;;;;5021546;28;20026;-72
2023/09/08 02:48:48;;;;;;;2.10;1.00;;;;;;;;;;5022244;28;20054;-73
2023/09/08 02:51:14;;;;;;;1.83;0.98;;;;;;;;;;5022102;28;20415;-74
2023/09/08 02:53:41;;;;;;;1.73;0.77;;;;;;;;;;5022212;28;20053;-73
2023/09/08 02:56:09;;;;;;;2.22;0.88;;;;;;;;;;4990559;28;20033;-72
2023/09/08 02:58:35;;;;;;;1.65;0.80;;;;;;;;;;5021042;28;20037;-73
2023/09/08 03:01:15;;;;;;;2.58;0.80;;;;;;;;;;5005798;28;20041;-75
2023/09/08 03:03:43;;;;;;;1.60;0.90;;;;;;;;;;5006439;28;20034;-73
2023/09/08 03:06:10;;;;;;;2.33;0.93;;;;;;;;;;4989019;28;20041;-73
2023/09/08 03:08:39;;;;;;;3.35;0.80;;;;;;;;;;5004337;28;20547;-73
2023/09/08 03:11:05;;;;;;;2.30;0.90;;;;;;;;;;5022028;28;20037;-72
2023/09/08 03:13:34;;;;;;;2.15;0.82;;;;;;;;;;5005818;28;20038;-73
2023/09/08 03:16:07;;;;;;;1.13;0.82;;;;;;;;;;5006738;28;20029;-73
2023/09/08 03:18:36;;;;;;;3.22;0.70;;;;;;;;;;5021223;28;20038;-73
2023/09/08 03:21:08;;;;;;;1.33;0.77;;;;;;;;;;5021106;28;20123;-73
2023/09/08 03:23:38;;;;;;;2.13;0.80;;;;;;;;;;5005328;28;20551;-73
2023/09/08 03:26:04;;;;;;;1.02;0.80;;;;;;;;;;5022185;28;20037;-73
2023/09/08 03:28:32;;;;;;;1.02;0.60;;;;;;;;;;5004470;28;20036;-73
2023/09/08 03:31:00;;;;;;;0.90;0.90;;;;;;;;;;5006779;28;20034;-73
2023/09/08 03:33:26;;;;;;;1.08;0.93;;;;;;;;;;5005418;28;20045;-73
2023/09/08 03:35:53;;;;;;;1.63;0.90;;;;;;;;;;5021235;28;20038;-74
2023/09/08 03:38:19;;;;;;;1.95;0.95;;;;;;;;;;5005420;28;20044;-73
2023/09/08 03:40:46;;;;;;;1.80;0.70;;;;;;;;;;5006929;28;20512;-74
2023/09/08 03:43:12;;;;;;;0.80;0.60;;;;;;;;;;5021208;28;20401;-73
2023/09/08 03:45:39;;;;;;;1.17;1.00;;;;;;;;;;5006637;28;20448;-73
2023/09/08 03:48:06;;;;;;;2.00;0.85;;;;;;;;;;5006686;28;20385;-74
2023/09/08 03:50:32;;;;;;;2.80;1.00;;;;;;;;;;5020953;28;20030;-75
2023/09/08 03:52:58;;;;;;;0.90;0.80;;;;;;;;;;5021236;28;20042;-76
2023/09/08 03:55:25;;;;;;;0.75;0.75;;;;;;;;;;5004437;28;20392;-75
2023/09/08 03:57:52;;;;;;;2.10;0.82;;;;;;;;;;5004851;28;20121;-77
2023/09/08 04:00:21;;;;;;;1.70;0.88;;;;;;;;;;4987568;28;20512;-76
2023/09/08 04:02:51;;;;;;;1.48;0.90;;;;;;;;;;5004019;28;20033;-76
2023/09/08 04:05:17;;;;;;;1.52;0.80;;;;;;;;;;5021187;28;20139;-75
2023/09/08 04:07:47;;;;;;;0.60;0.60;;;;;;;;;;4988398;28;20029;-75
2023/09/08 04:10:13;;;;;;;1.33;0.73;;;;;;;;;;5008243;28;20527;-74
2023/09/08 04:12:40;;;;;;;1.00;0.80;;;;;;;;;;5025096;28;20137;-77
2023/09/08 04:15:07;;;;;;;0.88;0.80;;;;;;;;;;5024880;28;20419;-78
2023/09/08 04:17:35;;;;;;;0.80;0.70;;;;;;;;;;5024357;28;20030;-78
2023/09/08 04:20:04;;;;;;;1.17;1.00;;;;;;;;;;5025618;28;20092;-77
2023/09/08 04:22:31;;;;;;;1.80;0.73;;;;;;;;;;5040551;28;20531;-77
2023/09/08 04:24:58;;;;;;;1.10;1.00;;;;;;;;;;5005445;28;20029;-77
2023/09/08 04:27:25;;;;;;;1.15;0.90;;;;;;;;;;5007060;28;20407;-76
2023/09/08 04:29:51;;;;;;;1.45;0.70;;;;;;;;;;5023765;28;20033;-76
2023/09/08 04:32:17;;;;;;;1.10;0.90;;;;;;;;;;5008526;28;20120;-75
2023/09/08 04:34:44;;;;;;;1.45;1.10;;;;;;;;;;5008622;28;20092;-77
2023/09/08 04:37:10;;;;;;;1.00;0.80;;;;;;;;;;4991052;28;20124;-75
2023/09/08 04:39:37;;;;;;;3.58;1.40;;;;;;;;;;5024536;28;20025;-76
2023/09/08 04:42:04;;;;;;;1.95;1.27;;;;;;;;;;5024819;28;20058;-75
2023/09/08 04:44:30;;;;;;;1.40;1.30;;;;;;;;;;5008204;28;20956;-76
2023/09/08 04:46:56;;;;;;;1.40;1.10;;;;;;;;;;5041543;28;20023;-76
2023/09/08 04:49:22;;;;;;;1.90;1.10;;;;;;;;;;5006069;28;20038;-76
2023/09/08 04:51:49;;;;;;;3.25;1.60;;;;;;;;;;5024212;28;20040;-76
2023/09/08 04:54:19;;;;;;;1.58;1.15;;;;;;;;;;4991857;28;20038;-76
2023/09/08 04:56:47;;;;;;;1.55;0.80;;;;;;;;;;5008543;28;20771;-76
2023/09/08 04:59:14;;;;;;;3.03;1.23;;;;;;;;;;5024120;28;20026;-76
2023/09/08 05:01:40;;;;;;;1.48;1.20;;;;;;;;;;5008068;28;20034;-77
2023/09/08 05:04:08;;;;;;;3.53;0.80;;;;;;;;;;5007889;28;20040;-76
2023/09/08 05:06:34;;;;;;;1.55;1.00;;;;;;;;;;5023732;28;20423;-76
2023/09/08 05:09:01;;;;;;;2.67;0.95;;;;;;;;;;5008394;28;20030;-76
2023/09/08 05:11:29;;;;;;;2.95;1.10;;;;;;;;;;4991518;28;20026;-76
2023/09/08 05:13:55;;;;;;;4.03;1.08;;;;;;;;;;5036985;28;20544;-76
2023/09/08 05:16:36;;;;;;;2.97;0.95;;;;;;;;;;5009577;28;20045;-76
2023/09/08 05:19:06;;;;;;;1.15;0.82;;;;;;;;;;5007183;28;20566;-76
2023/09/08 05:21:34;;;;;;;2.03;1.25;;;;;;;;;;5006512;28;20083;-75
2023/09/08 05:24:02;;;;;;;1.92;0.90;;;;;;;;;;5023686;28;20036;-76
2023/09/08 05:26:29;;;;;;;2.38;0.85;;;;;;;;;;5024200;28;20025;-77
2023/09/08 05:28:55;;;;;;;1.35;0.85;;;;;;;;;;5024506;28;20500;-76
2023/09/08 05:31:21;;;;;;;2.47;1.13;;;;;;;;;;5009524;28;20030;-76
2023/09/08 05:33:48;;;;;;;1.05;0.80;;;;;;;;;;5007561;28;20034;-76
2023/09/08 05:36:14;;;;;;;0.98;0.88;;;;;;;;;;5008626;28;20132;-76
2023/09/08 05:38:40;;;;;;;1.50;0.80;;;;;;;;;;5024278;28;20148;-76
2023/09/08 05:41:07;;;;;;;4.07;1.02;;;;;;;;;;5024225;28;20030;-76
2023/09/08 05:43:33;;;;;;;1.10;0.75;;;;;;;;;;5022581;28;20045;-77
2023/09/08 05:45:59;;;;;;;1.42;0.80;;;;;;;;;;5007536;28;20141;-76
2023/09/08 05:48:26;;;;;;;3.08;0.90;;;;;;;;;;5008509;28;20160;-76
2023/09/08 05:50:52;;;;;;;0.95;0.65;;;;;;;;;;5023471;28;20037;-74
2023/09/08 05:53:19;;;;;;;1.33;0.77;;;;;;;;;;5006416;28;20189;-77
2023/09/08 05:55:45;;;;;;;1.52;0.80;;;;;;;;;;4991444;28;20358;-77
2023/09/08 05:58:11;;;;;;;1.58;0.80;;;;;;;;;;5006875;28;20875;-75
2023/09/08 06:00:38;;;;;;;1.27;1.00;;;;;;;;;;5023231;28;20048;-76
2023/09/08 06:03:05;;;;;;;2.55;0.70;;;;;;;;;;5008952;28;20543;-76
2023/09/08 06:05:31;;;;;;;3.15;0.70;;;;;;;;;;5006661;28;20030;-75
2023/09/08 06:07:58;;;;;;;0.90;0.60;;;;;;;;;;5009032;28;20022;-75
2023/09/08 06:10:24;;;;;;;1.10;0.77;;;;;;;;;;5007062;28;20034;-76
2023/09/08 06:12:51;;;;;;;1.50;0.70;;;;;;;;;;4990446;28;20050;-75
2023/09/08 06:15:18;;;;;;;1.48;0.95;;;;;;;;;;5023281;28;20034;-76
2023/09/08 06:17:46;;;;;;;1.00;0.70;;;;;;;;;;5022898;28;20034;-76
2023/09/08 06:20:13;;;;;;;1.30;0.70;;;;;;;;;;5007101;28;20181;-76
2023/09/08 06:22:39;;;;;;;1.58;0.95;;;;;;;;;;5022370;28;20040;-76
2023/09/08 06:25:07;;;;;;;3.17;0.80;;;;;;;;;;4990272;28;20033;-76
2023/09/08 06:27:34;;;;;;;2.70;0.80;;;;;;;;;;5022092;28;21107;-76
2023/09/08 06:30:00;;;;;;;2.50;0.80;;;;;;;;;;5039262;28;20034;-76
2023/09/08 06:32:27;;;;;;;2.05;0.90;;;;;;;;;;4988181;28;20393;-77
2023/09/08 06:34:54;;;;;;;1.45;0.75;;;;;;;;;;5008041;28;20444;-75
2023/09/08 06:37:20;;;;;;;2.35;0.93;;;;;;;;;;5006407;28;20037;-76
2023/09/08 06:39:46;;;;;;;2.13;1.00;;;;;;;;;;5007273;28;20449;-77
2023/09/08 06:42:13;;;;;;;2.65;0.93;;;;;;;;;;5021366;28;20034;-74
2023/09/08 06:44:47;;;;;;;1.43;0.70;;;;;;;;;;5039039;28;20029;-74
2023/09/08 06:47:13;;;;;;;2.15;0.80;;;;;;;;;;5022292;28;20292;-74
2023/09/08 06:49:41;;;;;;;1.92;0.70;;;;;;;;;;5022278;28;20038;-76
2023/09/08 06:52:07;;;;;;;1.67;1.10;;;;;;;;;;5005810;28;20037;-76
2023/09/08 06:54:33;;;;;;;4.85;0.85;;;;;;;;;;5021665;28;20049;-74
2023/09/08 06:57:00;;;;;;;0.95;0.70;;;;;;;;;;5021444;28;20041;-75
2023/09/08 06:59:26;;;;;;;2.55;0.85;;;;;;;;;;5007287;28;20040;-75
2023/09/08 07:01:52;;;;;;;1.23;0.70;;;;;;;;;;5021905;28;20038;-76
2023/09/08 07:04:19;;;;;;;1.27;0.80;;;;;;;;;;5021614;28;20034;-77
2023/09/08 07:06:46;;;;;;;0.93;0.70;;;;;;;;;;5021838;28;20034;-75
2023/09/08 07:09:14;;;;;;;1.55;0.70;;;;;;;;;;5004873;28;20048;-74
2023/09/08 07:11:40;;;;;;;2.05;0.73;;;;;;;;;;5005614;28;20060;-75
2023/09/08 07:14:06;;;;;;;4.30;1.10;;;;;;;;;;5007529;28;20037;-76
2023/09/08 07:16:33;;;;;;;2.70;0.70;;;;;;;;;;5021165;28;20500;-74
2023/09/08 07:19:00;;;;;;;1.77;0.82;;;;;;;;;;5004739;28;20034;-75
2023/09/08 07:21:27;;;;;;;2.08;0.80;;;;;;;;;;5005717;28;20034;-75
2023/09/08 07:23:54;;;;;;;2.75;0.80;;;;;;;;;;5019868;28;20074;-75
2023/09/08 07:26:20;;;;;;;3.10;1.20;;;;;;;;;;5005349;28;20497;-74
2023/09/08 07:28:48;;;;;;;1.85;0.80;;;;;;;;;;5022073;28;20033;-75
2023/09/08 07:31:15;;;;;;;1.98;0.93;;;;;;;;;;5006482;28;20149;-73
2023/09/08 07:33:45;;;;;;;2.38;0.82;;;;;;;;;;5005146;28;20044;-73
2023/09/08 07:36:11;;;;;;;1.70;0.93;;;;;;;;;;5037339;28;20045;-74
2023/09/08 07:38:39;;;;;;;3.65;1.00;;;;;;;;;;5020318;28;20169;-73
2023/09/08 07:41:07;;;;;;;2.35;0.77;;;;;;;;;;5021701;28;20032;-73
2023/09/08 07:43:33;;;;;;;2.95;0.93;;;;;;;;;;5020697;28;21010;-74
2023/09/08 07:45:59;;;;;;;2.83;0.80;;;;;;;;;;5021199;28;20045;-74
2023/09/08 07:48:26;;;;;;;2.53;0.75;;;;;;;;;;5006535;28;20040;-78
2023/09/08 07:50:52;;;;;;;1.23;0.98;;;;;;;;;;5005997;28;20590;-77
2023/09/08 07:53:18;;;;;;;2.95;0.80;;;;;;;;;;5017574;28;20085;-76
2023/09/08 07:55:45;;;;;;;4.80;1.00;;;;;;;;;;5004988;28;20415;-76
2023/09/08 07:58:11;;;;;;;2.53;1.10;;;;;;;;;;5006687;28;20034;-77
2023/09/08 08:00:37;;;;;;;1.38;0.70;;;;;;;;;;5004778;28;20029;-77
2023/09/08 08:03:04;;;;;;;3.30;0.60;;;;;;;;;;5005566;28;20044;-76
2023/09/08 08:05:31;;;;;;;3.72;0.70;;;;;;;;;;5006177;28;20077;-77
2023/09/08 08:07:57;;;;;;;1.60;0.70;;;;;;;;;;5005127;28;20025;-76
2023/09/08 08:10:24;;;;;;;2.42;0.55;;;;;;;;;;5005538;28;20515;-77
2023/09/08 08:12:50;;;;;;;1.55;0.90;;;;;;;;;;5005305;28;20623;-76
2023/09/08 08:15:16;;;;;;;1.48;0.50;;;;;;;;;;5006477;28;20141;-75
2023/09/08 08:17:43;;;;;;;1.45;0.60;;;;;;;;;;5004456;28;20066;-76
2023/09/08 08:20:16;;;;;;;2.95;0.60;;;;;;;;;;5022042;28;20025;-77
2023/09/08 08:22:43;;;;;;;1.88;0.77;;;;;;;;;;5006214;28;20132;-77
2023/09/08 08:25:10;;;;;;;4.75;0.90;;;;;;;;;;5005090;28;20512;-77
2023/09/08 08:27:37;;;;;;;2.42;0.98;;;;;;;;;;5020769;28;20425;-76
2023/09/08 08:30:03;;;;;;;2.97;0.80;;;;;;;;;;5006070;28;20038;-75
2023/09/08 08:32:33;;;;;;;2.10;0.65;;;;;;;;;;5003698;28;20185;-76
2023/09/08 08:35:00;;;;;;;1.65;0.90;;;;;;;;;;5006908;28;20061;-77
2023/09/08 08:37:26;;;;;;;1.65;0.50;;;;;;;;;;5004803;28;20030;-76
2023/09/08 08:39:53;;;;;;;1.10;0.70;;;;;;;;;;5005235;28;20341;-75
2023/09/08 08:42:22;;;;;;;1.80;0.75;;;;;;;;;;5005876;28;20041;-86
2023/09/08 08:44:49;;;;;;;1.25;0.50;;;;;;;;;;5005019;28;20116;-84
2023/09/08 08:47:16;;;;;;;1.08;0.60;;;;;;;;;;5005141;28;20033;-80
2023/09/08 08:49:46;;;;;;;6.55;0.60;;;;;;;;;;4973306;28;20144;-92
2023/09/08 08:52:13;;;;;;;2.67;0.80;;;;;;;;;;5021486;28;20538;-92
2023/09/08 08:54:40;;;;;;;2.28;0.70;;;;;;;;;;5022338;28;20516;-82
2023/09/08 08:57:07;;;;;;;2.55;0.73;;;;;;;;;;5009463;28;20034;-81
2023/09/08 08:59:33;;;;;;;1.10;0.93;;;;;;;;;;5009363;28;20036;-78
2023/09/08 09:01:59;;;;;;;0.80;0.65;;;;;;;;;;5009889;28;20492;-78
2023/09/08 09:04:26;;;;;;;2.78;0.60;;;;;;;;;;5008968;28;20099;-78
2023/09/08 09:06:55;;;;;;;3.55;0.77;;;;;;;;;;5008600;28;20038;-79
2023/09/08 09:09:21;;;;;;;0.75;0.60;;;;;;;;;;5009132;28;20034;-78
2023/09/08 09:11:48;;;;;;;1.85;0.60;;;;;;;;;;5009045;28;20041;-78
2023/09/08 09:14:14;;;;;;;1.05;0.70;;;;;;;;;;5024217;28;20033;-78
2023/09/08 09:16:41;;;;;;;1.83;0.77;;;;;;;;;;5009174;28;20116;-77
2023/09/08 09:19:07;;;;;;;4.13;0.70;;;;;;;;;;5008702;28;20034;-74
2023/09/08 09:21:47;;;;;;;1.85;0.70;;;;;;;;;;5008165;28;20369;-76
2023/09/08 09:24:17;;;;;;;0.60;0.50;;;;;;;;;;5007995;28;20034;-75
2023/09/08 09:26:44;;;;;;;1.95;0.80;;;;;;;;;;5008079;28;20038;-77
2023/09/08 09:29:14;;;;;;;2.22;0.73;;;;;;;;;;5007914;28;20140;-76
2023/09/08 09:31:53;;;;;;;5.57;0.73;;;;;;;;;;5008686;28;20033;-77
2023/09/08 09:34:20;;;;;;;5.10;1.02;;;;;;;;;;5023935;28;20148;-76
2023/09/08 09:36:49;;;;;;;2.47;0.90;;;;;;;;;;5008178;28;20088;-78
2023/09/08 09:39:17;;;;;;;3.60;0.90;;;;;;;;;;5007201;28;20451;-77
2023/09/08 09:41:43;;;;;;;2.00;0.80;;;;;;;;;;5007148;28;20041;-77
2023/09/08 09:44:10;;;;;;;3.75;0.80;;;;;;;;;;5009126;28;20032;-76
2023/09/08 09:46:36;;;;;;;2.95;0.65;;;;;;;;;;5008352;28;20404;-78
2023/09/08 09:49:03;;;;;;;1.33;0.50;;;;;;;;;;5023487;28;20497;-77
2023/09/08 09:51:30;;;;;;;0.85;0.60;;;;;;;;;;5008183;28;20040;-77
2023/09/08 09:53:58;;;;;;;0.60;0.60;;;;;;;;;;5005992;28;20046;-75
2023/09/08 09:56:25;;;;;;;1.48;0.60;;;;;;;;;;5007335;28;20042;-78
2023/09/08 09:58:53;;;;;;;2.97;0.73;;;;;;;;;;5008309;28;20041;-77
2023/09/08 10:01:20;;;;;;;1.02;0.60;;;;;;;;;;5019162;28;20130;-77
2023/09/08 10:03:48;;;;;;;1.73;0.65;;;;;;;;;;5008008;28;20116;-75
2023/09/08 10:06:15;;;;;;;0.95;0.50;;;;;;;;;;5005793;28;20453;-76
2023/09/08 10:08:43;;;;;;;1.95;0.70;;;;;;;;;;5006505;28;20038;-77
2023/09/08 10:11:09;;;;;;;2.33;0.55;;;;;;;;;;5007316;28;20030;-79
2023/09/08 10:13:40;;;;;;;1.15;0.60;;;;;;;;;;5022684;28;20570;-75
2023/09/08 10:16:08;;;;;;;1.00;0.47;;;;;;;;;;5007784;28;20041;-77
2023/09/08 10:18:35;;;;;;;1.98;0.80;;;;;;;;;;5007842;28;20054;-77
2023/09/08 10:21:04;;;;;;;0.80;0.52;;;;;;;;;;5008153;28;20260;-79
2023/09/08 10:23:34;;;;;;;1.23;0.70;;;;;;;;;;5007199;28;20038;-76
2023/09/08 10:26:04;;;;;;;2.15;0.85;;;;;;;;;;5008402;28;20037;-76
2023/09/08 10:28:31;;;;;;;1.13;0.80;;;;;;;;;;5022481;28;20559;-77
2023/09/08 10:30:57;;;;;;;3.40;0.80;;;;;;;;;;5007849;28;20034;-76
2023/09/08 10:33:24;;;;;;;1.92;0.60;;;;;;;;;;5007509;28;20104;-76
2023/09/08 10:35:50;;;;;;;2.10;0.55;;;;;;;;;;5007676;28;20831;-77
2023/09/08 10:38:26;;;;;;;2.10;0.73;;;;;;;;;;5007835;28;20672;-76
2023/09/08 10:40:53;;;;;;;1.60;0.63;;;;;;;;;;5007041;28;20041;-77
2023/09/08 10:43:20;;;;;;;2.38;0.80;;;;;;;;;;5016798;28;20037;-76
2023/09/08 10:45:47;;;;;;;2.45;0.70;;;;;;;;;;5007485;28;20034;-76
2023/09/08 10:48:15;;;;;;;1.00;0.80;;;;;;;;;;5006636;28;20040;-76
2023/09/08 10:50:42;;;;;;;0.85;0.40;;;;;;;;;;5007651;28;20605;-76
2023/09/08 10:53:14;;;;;;;0.75;0.50;;;;;;;;;;5007537;28;20081;-76
2023/09/08 10:55:53;;;;;;;1.42;0.65;;;;;;;;;;5007147;28;20421;-76
2023/09/08 10:58:21;;;;;;;2.00;0.82;;;;;;;;;;5006484;28;20452;-76
2023/09/08 11:00:48;;;;;;;1.38;0.65;;;;;;;;;;5007346;28;20692;-76
2023/09/08 11:03:26;;;;;;;1.17;0.50;;;;;;;;;;5006650;28;20064;-76
2023/09/08 11:05:53;;;;;;;1.23;0.70;;;;;;;;;;5006850;28;20495;-77
2023/09/08 11:08:19;;;;;;;1.98;0.57;;;;;;;;;;5007549;28;20045;-77
2023/09/08 11:10:45;;;;;;;2.67;0.52;;;;;;;;;;5005428;28;20026;-76
2023/09/08 11:13:12;;;;;;;0.82;0.55;;;;;;;;;;5020958;28;20160;-75
2023/09/08 11:15:38;;;;;;;3.38;0.85;;;;;;;;;;5016934;28;20038;-76
2023/09/08 11:18:07;;;;;;;2.42;0.50;;;;;;;;;;5003668;28;20041;-76
2023/09/08 11:20:34;;;;;;;1.75;0.80;;;;;;;;;;5006120;28;20457;-78
2023/09/08 11:23:00;;;;;;;1.73;0.90;;;;;;;;;;5007686;28;20026;-76
2023/09/08 11:25:27;;;;;;;3.67;0.88;;;;;;;;;;5006192;28;20069;-78
2023/09/08 11:27:53;;;;;;;1.38;0.60;;;;;;;;;;5006396;28;20084;-77
2023/09/08 11:30:19;;;;;;;1.48;0.85;;;;;;;;;;5006211;28;20126;-75
2023/09/08 11:32:46;;;;;;;2.40;0.70;;;;;;;;;;5004540;28;20076;-76
2023/09/08 11:35:15;;;;;;;1.20;0.40;;;;;;;;;;5006474;28;20049;-74
2023/09/08 11:37:41;;;;;;;2.47;0.63;;;;;;;;;;5005906;28;20499;-75
2023/09/08 11:40:13;;;;;;;0.80;0.50;;;;;;;;;;5006448;28;20037;-82
2023/09/08 11:42:43;;;;;;;2.45;0.40;;;;;;;;;;5004632;28;20058;-77
2023/09/08 11:45:14;;;;;;;0.88;0.57;;;;;;;;;;5005175;28;20076;-79
2023/09/08 11:47:41;;;;;;;3.60;0.65;;;;;;;;;;5021681;28;20121;-80
2023/09/08 11:50:08;;;;;;;3.17;0.60;;;;;;;;;;5005665;28;20030;-76
2023/09/08 11:52:34;;;;;;;0.98;0.50;;;;;;;;;;5005527;28;20046;-75
2023/09/08 11:55:00;;;;;;;0.95;0.47;;;;;;;;;;5005938;28;20044;-75
2023/09/08 11:57:28;;;;;;;0.65;0.50;;;;;;;;;;5004859;28;20038;-75
2023/09/08 11:59:55;;;;;;;0.55;0.30;;;;;;;;;;5004521;28;20065;-75
2023/09/08 12:02:21;;;;;;;1.70;0.40;;;;;;;;;;5005832;28;20053;-75
2023/09/08 12:04:47;;;;;;;1.30;0.30;;;;;;;;;;5021385;28;20045;-76
2023/09/08 12:07:18;;;;;;;1.90;0.40;;;;;;;;;;5004123;28;20032;-76
2023/09/08 12:09:45;;;;;;;1.60;0.55;;;;;;;;;;5005686;28;20038;-77
2023/09/08 12:12:12;;;;;;;2.85;0.50;;;;;;;;;;5005857;28;20080;-76
2023/09/08 12:14:42;;;;;;;1.95;0.50;;;;;;;;;;5005484;28;20030;-76
2023/09/08 12:17:08;;;;;;;1.00;0.30;;;;;;;;;;5004924;28;20029;-76
2023/09/08 12:19:38;;;;;;;2.40;0.60;;;;;;;;;;5020159;28;20034;-76
2023/09/08 12:22:07;;;;;;;1.00;0.40;;;;;;;;;;5002491;28;20030;-76
2023/09/08 12:24:51;;;;;;;2.22;0.60;;;;;;;;;;5005832;28;20682;-77
2023/09/08 12:27:18;;;;;;;0.55;0.47;;;;;;;;;;5005406;28;20683;-76
2023/09/08 12:29:54;;;;;;;0.43;0.40;;;;;;;;;;5006843;28;20172;-76
2023/09/08 12:32:21;;;;;;;0.52;0.40;;;;;;;;;;5010254;28;20029;-75
2023/09/08 12:34:47;;;;;;;0.63;0.40;;;;;;;;;;5008853;28;20423;-76
2023/09/08 12:37:13;;;;;;;0.30;0.30;;;;;;;;;;5039973;28;20042;-75
2023/09/08 12:39:40;;;;;;;1.27;0.30;;;;;;;;;;5008066;28;20091;-77
2023/09/08 12:42:06;;;;;;;1.73;0.60;;;;;;;;;;5009470;28;20504;-76
2023/09/08 12:44:32;;;;;;;0.30;0.20;;;;;;;;;;5009665;28;20080;-76
2023/09/08 12:46:59;;;;;;;1.05;0.40;;;;;;;;;;5026831;28;20463;-75
2023/09/08 12:49:25;;;;;;;1.02;0.38;;;;;;;;;;5014023;28;20034;-76
2023/09/08 12:51:51;;;;;;;1.73;0.40;;;;;;;;;;5013692;28;20042;-78
2023/09/08 12:54:17;;;;;;;0.80;0.40;;;;;;;;;;5014269;28;20050;-76
2023/09/08 12:56:44;;;;;;;1.55;0.50;;;;;;;;;;5012311;28;20041;-76
2023/09/08 12:59:10;;;;;;;0.47;0.35;;;;;;;;;;5012147;28;20041;-76
2023/09/08 13:01:36;;;;;;;0.82;0.50;;;;;;;;;;5013439;28;20526;-76
2023/09/08 13:04:02;;;;;;;0.82;0.40;;;;;;;;;;5010603;28;20034;-82
2023/09/08 13:06:29;;;;;;;1.23;0.60;;;;;;;;;;4980237;28;20045;-79
2023/09/08 13:08:55;;;;;;;1.42;0.45;;;;;;;;;;5013793;28;20655;-79
2023/09/08 13:11:21;;;;;;;1.05;0.50;;;;;;;;;;4996626;28;20420;-76
2023/09/08 13:13:48;;;;;;;2.05;0.40;;;;;;;;;;5012419;28;20499;-78
2023/09/08 13:16:14;;;;;;;0.80;0.40;;;;;;;;;;5013048;28;20511;-81
2023/09/08 13:18:41;;;;;;;3.28;0.43;;;;;;;;;;4993202;28;20165;-81
2023/09/08 13:21:07;;;;;;;2.63;0.50;;;;;;;;;;4996653;28;20038;-81
2023/09/08 13:23:33;;;;;;;1.38;0.30;;;;;;;;;;4992034;28;20126;-80
2023/09/08 13:26:00;;;;;;;1.25;0.47;;;;;;;;;;5012438;28;20057;-81
2023/09/08 13:28:26;;;;;;;1.48;0.47;;;;;;;;;;5013105;28;20096;-80
2023/09/08 13:30:52;;;;;;;1.00;0.60;;;;;;;;;;5015224;28;20508;-81
2023/09/08 13:33:19;;;;;;;1.75;0.60;;;;;;;;;;5013093;28;20133;-78
2023/09/08 13:35:46;;;;;;;1.17;0.55;;;;;;;;;;5014115;28;20042;-77
2023/09/08 13:38:12;;;;;;;0.75;0.60;;;;;;;;;;5013993;28;20029;-78
2023/09/08 13:40:38;;;;;;;0.77;0.45;;;;;;;;;;5013043;28;20053;-77
2023/09/08 13:43:05;;;;;;;1.48;0.50;;;;;;;;;;5009620;28;20033;-77
2023/09/08 13:45:31;;;;;;;1.13;0.65;;;;;;;;;;5023685;28;20094;-76
2023/09/08 13:47:57;;;;;;;1.45;0.50;;;;;;;;;;5008758;28;20041;-76
2023/09/08 13:50:24;;;;;;;3.60;0.65;;;;;;;;;;5040243;28;20543;-75
2023/09/08 13:52:50;;;;;;;2.25;0.60;;;;;;;;;;5008559;28;20149;-76
2023/09/08 13:55:23;;;;;;;1.73;1.23;;;;;;;;;;5007209;28;20076;-76
2023/09/08 13:57:49;;;;;;;0.90;0.80;;;;;;;;;;5018296;28;20745;-75
2023/09/08 14:00:16;;;;;;;1.02;0.70;;;;;;;;;;5039763;28;20072;-77
2023/09/08 14:02:42;;;;;;;0.77;0.63;;;;;;;;;;5039048;28;20123;-77
2023/09/08 14:05:09;;;;;;;1.15;0.68;;;;;;;;;;5007906;28;20496;-78
2023/09/08 14:07:35;;;;;;;2.92;0.80;;;;;;;;;;5018519;28;20553;-77
2023/09/08 14:10:07;;;;;;;1.95;1.15;;;;;;;;;;5008582;28;20034;-76
2023/09/08 14:12:33;;;;;;;1.85;1.10;;;;;;;;;;5007591;28;20428;-76
2023/09/08 14:14:59;;;;;;;1.20;1.10;;;;;;;;;;5007801;28;20030;-77
2023/09/08 14:17:26;;;;;;;1.27;0.95;;;;;;;;;;5004799;28;20034;-76
2023/09/08 14:19:52;;;;;;;2.65;1.42;;;;;;;;;;5004726;28;20492;-76
2023/09/08 14:22:18;;;;;;;2.63;1.13;;;;;;;;;;5004890;28;20088;-78
2023/09/08 14:24:44;;;;;;;1.10;1.00;;;;;;;;;;5037853;28;20690;-78
2023/09/08 14:27:11;;;;;;;1.77;1.67;;;;;;;;;;5004140;28;20394;-77
2023/09/08 14:29:37;;;;;;;3.03;1.77;;;;;;;;;;5005054;28;20111;-77
2023/09/08 14:32:03;;;;;;;7.88;1.88;;;;;;;;;;5019827;28;20038;-77
2023/09/08 14:34:30;;;;;;;4.20;1.83;;;;;;;;;;5004663;28;20041;-76
2023/09/08 14:36:56;;;;;;;2.05;1.85;;;;;;;;;;5004326;28;20061;-77
2023/09/08 14:39:22;;;;;;;3.55;1.63;;;;;;;;;;5003188;28;20041;-78
2023/09/08 14:41:53;;;;;;;2.40;1.80;;;;;;;;;;5003529;28;20046;-76
2023/09/08 14:44:21;;;;;;;2.67;2.00;;;;;;;;;;5004780;28;20030;-77